Time;durP1;ratioP1;P1;durP2;ratioP2;P2;SDS_P1;SDS_P2;PMS_P1;PMS_P2;Temp;Humidity;BMP_temperature;BMP_pressure;BME280_temperature;BME280_humidity;BME280_pressure;Samples;Min_cycle;Max_cycle;Signal;HPM_P1;HPM_P2
2022/09/18 00:00:39;;;;;;;5.45;2.03;;;11.60;99.90;;;;;;5133436;27;20156;-52
2022/09/18 00:03:05;;;;;;;6.53;2.03;;;11.60;99.90;;;;;;5133722;27;20202;-52
2022/09/18 00:05:31;;;;;;;6.97;1.88;;;11.60;99.90;;;;;;5133769;27;20182;-52
2022/09/18 00:07:56;;;;;;;6.55;2.15;;;11.60;99.90;;;;;;5133391;27;20593;-52
2022/09/18 00:10:22;;;;;;;6.32;1.52;;;11.60;99.90;;;;;;5133581;27;20172;-52
2022/09/18 00:12:47;;;;;;;3.45;1.60;;;11.60;99.90;;;;;;5133964;27;20172;-52
2022/09/18 00:15:13;;;;;;;2.88;1.42;;;11.60;99.90;;;;;;5133623;27;20191;-52
2022/09/18 00:17:39;;;;;;;6.72;1.90;;;11.60;99.90;;;;;;5133603;27;20217;-52
2022/09/18 00:20:06;;;;;;;4.97;1.55;;;11.50;99.90;;;;;;5133398;27;20167;-52
2022/09/18 00:22:32;;;;;;;4.65;1.60;;;11.50;99.90;;;;;;5133488;27;20167;-52
2022/09/18 00:24:57;;;;;;;3.58;1.95;;;11.50;99.90;;;;;;5133486;27;20191;-52
2022/09/18 00:27:23;;;;;;;3.88;1.83;;;11.50;99.90;;;;;;5133269;27;20204;-52
2022/09/18 00:29:48;;;;;;;5.18;1.73;;;11.50;99.90;;;;;;5133628;27;20171;-52
2022/09/18 00:32:14;;;;;;;3.55;1.80;;;11.50;99.90;;;;;;5132064;27;20245;-53
2022/09/18 00:34:40;;;;;;;6.93;2.13;;;11.50;99.90;;;;;;5133333;27;20229;-53
2022/09/18 00:37:06;;;;;;;5.20;1.90;;;11.50;99.90;;;;;;5133186;27;20168;-53
2022/09/18 00:39:32;;;;;;;3.03;1.60;;;11.50;99.90;;;;;;5132886;27;20168;-52
2022/09/18 00:41:57;;;;;;;8.65;2.13;;;11.50;99.90;;;;;;5133271;27;20170;-53
2022/09/18 00:44:38;;;;;;;5.18;1.65;;;11.50;99.90;;;;;;5133134;27;20156;-52
2022/09/18 00:47:27;;;;;;;6.63;2.03;;;11.50;99.90;;;;;;5133285;27;20212;-53
2022/09/18 00:50:22;;;;;;;2.58;1.65;;;11.50;99.90;;;;;;5133005;27;20172;-52
2022/09/18 00:52:58;;;;;;;6.30;1.75;;;11.50;99.90;;;;;;5133471;27;20263;-53
2022/09/18 00:55:30;;;;;;;6.28;1.90;;;11.50;99.90;;;;;;5133205;27;20186;-53
2022/09/18 00:57:58;;;;;;;8.25;2.40;;;11.50;99.90;;;;;;5133117;27;20170;-53
2022/09/18 01:00:24;;;;;;;6.57;2.15;;;11.50;99.90;;;;;;5131957;27;20160;-53
2022/09/18 01:02:50;;;;;;;3.97;1.75;;;11.50;99.90;;;;;;5133119;27;20697;-53
2022/09/18 01:05:41;;;;;;;8.82;1.90;;;11.50;99.90;;;;;;5133093;27;20164;-53
2022/09/18 01:08:17;;;;;;;7.32;1.63;;;11.50;99.90;;;;;;5132754;27;20644;-53
2022/09/18 01:11:21;;;;;;;7.03;1.90;;;11.50;99.90;;;;;;5132706;27;20159;-53
2022/09/18 01:14:12;;;;;;;5.07;1.75;;;11.50;99.90;;;;;;5127634;27;20179;-52
2022/09/18 01:17:04;;;;;;;6.95;1.65;;;11.50;99.90;;;;;;5132676;27;20163;-53
2022/09/18 01:19:30;;;;;;;1.98;1.30;;;11.50;99.90;;;;;;5132673;27;20601;-52
2022/09/18 01:22:24;;;;;;;4.03;1.50;;;11.40;99.90;;;;;;5132666;28;20175;-52
2022/09/18 01:25:25;;;;;;;3.47;1.13;;;11.50;99.90;;;;;;5132934;28;20168;-52
2022/09/18 01:28:16;;;;;;;4.88;1.80;;;11.50;99.90;;;;;;5077179;28;20265;-52
2022/09/18 01:30:46;;;;;;;4.25;1.52;;;11.40;99.90;;;;;;5132556;28;20171;-52
2022/09/18 01:33:37;;;;;;;4.88;1.52;;;11.50;99.90;;;;;;5132451;28;20228;-52
2022/09/18 01:36:07;;;;;;;6.30;1.88;;;11.50;99.90;;;;;;5124044;27;20184;-52
2022/09/18 01:38:37;;;;;;;5.72;1.98;;;11.50;99.90;;;;;;5131072;27;20167;-52
2022/09/18 01:41:12;;;;;;;4.35;1.67;;;11.50;99.90;;;;;;5132452;28;20168;-52
2022/09/18 01:43:39;;;;;;;2.92;1.45;;;11.50;99.90;;;;;;5132361;28;20243;-52
2022/09/18 01:46:13;;;;;;;4.78;1.73;;;11.50;99.90;;;;;;5132563;28;20203;-52
2022/09/18 01:49:03;;;;;;;6.28;1.55;;;11.50;99.90;;;;;;5132392;28;20178;-52
2022/09/18 01:51:35;;;;;;;8.30;1.50;;;11.50;99.90;;;;;;5132283;28;20156;-52
2022/09/18 01:54:08;;;;;;;2.78;1.23;;;11.50;99.90;;;;;;5132172;28;20223;-52
2022/09/18 01:56:38;;;;;;;4.82;1.45;;;11.50;99.90;;;;;;5132157;28;20301;-52
2022/09/18 01:59:09;;;;;;;4.55;1.40;;;11.50;99.90;;;;;;5130928;28;20180;-52
2022/09/18 02:01:37;;;;;;;5.95;2.92;;;11.50;99.90;;;;;;5131191;28;20629;-52
2022/09/18 02:04:09;;;;;;;5.93;2.25;;;11.50;99.90;;;;;;5132143;28;20217;-52
2022/09/18 02:07:18;;;;;;;5.50;2.28;;;11.50;99.90;;;;;;5131798;28;20240;-52
2022/09/18 02:09:43;;;;;;;3.88;2.10;;;11.50;99.90;;;;;;5102820;27;20188;-52
2022/09/18 02:12:13;;;;;;;3.83;2.53;;;11.50;99.90;;;;;;5133736;27;20160;-52
2022/09/18 02:14:43;;;;;;;5.20;2.53;;;11.50;99.90;;;;;;5136062;27;20168;-52
2022/09/18 02:17:18;;;;;;;3.88;2.50;;;11.50;99.90;;;;;;5135792;27;20190;-52
2022/09/18 02:19:52;;;;;;;4.88;2.63;;;11.50;99.90;;;;;;5134674;27;20172;-52
2022/09/18 02:22:21;;;;;;;3.95;2.58;;;11.50;99.90;;;;;;5136210;27;20164;-52
2022/09/18 02:24:49;;;;;;;4.25;2.78;;;11.50;99.90;;;;;;5136253;27;20172;-52
2022/09/18 02:27:16;;;;;;;3.22;2.55;;;11.50;99.90;;;;;;5135668;27;20203;-52
2022/09/18 02:29:44;;;;;;;5.18;2.35;;;11.50;99.90;;;;;;5135671;27;20199;-52
2022/09/18 02:32:10;;;;;;;6.43;2.53;;;11.50;99.90;;;;;;5135639;27;20256;-53
2022/09/18 02:34:35;;;;;;;4.65;2.83;;;11.50;99.90;;;;;;5135877;27;20192;-52
2022/09/18 02:37:13;;;;;;;4.93;2.88;;;11.50;99.90;;;;;;5135598;27;20202;-52
2022/09/18 02:40:00;;;;;;;6.90;3.10;;;11.50;99.90;;;;;;5135417;27;20167;-52
2022/09/18 02:42:53;;;;;;;9.27;3.35;;;11.50;99.90;;;;;;5135381;27;20509;-52
2022/09/18 02:45:24;;;;;;;7.82;3.00;;;11.50;99.90;;;;;;5135719;27;20160;-52
2022/09/18 02:48:20;;;;;;;4.35;2.90;;;11.40;99.90;;;;;;5135914;27;20242;-52
2022/09/18 02:51:17;;;;;;;4.28;2.45;;;11.40;99.90;;;;;;5135904;27;20190;-52
2022/09/18 02:53:42;;;;;;;4.85;3.00;;;11.40;99.90;;;;;;5134661;27;20220;-53
2022/09/18 02:56:21;;;;;;;4.40;3.08;;;11.40;99.90;;;;;;5135283;27;20570;-52
2022/09/18 02:59:19;;;;;;;8.20;2.88;;;11.40;99.90;;;;;;5135486;27;20221;-52
2022/09/18 03:01:46;;;;;;;7.32;3.05;;;11.40;99.90;;;;;;5135107;27;20172;-52
2022/09/18 03:04:14;;;;;;;4.93;2.72;;;11.40;99.90;;;;;;5135058;27;20156;-52
2022/09/18 03:06:40;;;;;;;6.72;3.15;;;11.40;99.90;;;;;;5135082;27;20586;-52
2022/09/18 03:09:06;;;;;;;4.97;2.38;;;11.40;99.90;;;;;;5134867;27;20164;-52
2022/09/18 03:11:32;;;;;;;4.57;2.50;;;11.30;99.90;;;;;;5134738;27;20170;-52
2022/09/18 03:13:57;;;;;;;6.40;2.50;;;11.40;99.90;;;;;;5134807;27;20209;-52
2022/09/18 03:16:23;;;;;;;5.45;2.85;;;11.30;99.90;;;;;;5134932;27;20247;-52
2022/09/18 03:18:48;;;;;;;4.82;2.58;;;11.30;99.90;;;;;;5135089;27;20182;-52
2022/09/18 03:21:14;;;;;;;5.18;2.20;;;11.30;99.90;;;;;;5134760;27;20247;-52
2022/09/18 03:23:39;;;;;;;3.22;2.25;;;11.30;99.90;;;;;;5133531;27;20167;-52
2022/09/18 03:26:05;;;;;;;3.75;2.05;;;11.40;99.90;;;;;;5134458;27;20565;-53
2022/09/18 03:28:31;;;;;;;2.85;1.98;;;11.30;99.90;;;;;;5134624;27;20164;-53
2022/09/18 03:30:56;;;;;;;7.47;2.00;;;11.40;99.90;;;;;;5134535;27;20160;-52
2022/09/18 03:33:22;;;;;;;5.32;2.10;;;11.30;99.90;;;;;;5134657;27;20175;-52
2022/09/18 03:35:47;;;;;;;6.53;1.90;;;11.30;99.90;;;;;;5133580;27;20168;-52
2022/09/18 03:38:14;;;;;;;3.05;1.58;;;11.30;99.90;;;;;;5134500;27;20172;-52
2022/09/18 03:40:45;;;;;;;2.60;1.50;;;11.30;99.90;;;;;;5134583;27;20164;-52
2022/09/18 03:43:11;;;;;;;4.00;1.77;;;11.30;99.90;;;;;;5134254;27;20168;-52
2022/09/18 03:45:36;;;;;;;1.63;1.50;;;11.30;99.90;;;;;;5133862;27;20167;-52
2022/09/18 03:48:03;;;;;;;5.32;1.77;;;11.30;99.90;;;;;;5133600;27;20294;-52
2022/09/18 03:50:29;;;;;;;4.38;1.85;;;11.30;99.90;;;;;;5134423;27;20580;-52
2022/09/18 03:52:55;;;;;;;5.75;2.70;;;11.30;99.90;;;;;;5134050;27;20225;-52
2022/09/18 03:55:21;;;;;;;2.00;1.45;;;11.30;99.90;;;;;;5134035;27;20175;-52
2022/09/18 03:57:47;;;;;;;4.63;1.73;;;11.30;99.90;;;;;;5134407;27;20172;-52
2022/09/18 04:00:14;;;;;;;3.38;1.90;;;11.30;99.90;;;;;;5133912;27;20167;-52
2022/09/18 04:02:39;;;;;;;5.10;1.67;;;11.30;99.90;;;;;;5134215;27;20168;-52
2022/09/18 04:05:05;;;;;;;3.20;1.77;;;11.30;99.90;;;;;;5132786;27;20647;-52
2022/09/18 04:07:31;;;;;;;4.63;1.65;;;11.30;99.90;;;;;;5133796;27;20249;-52
2022/09/18 04:09:57;;;;;;;4.47;1.70;;;11.30;99.90;;;;;;5133742;27;20161;-52
2022/09/18 04:12:23;;;;;;;2.95;2.00;;;11.40;99.90;;;;;;5133732;27;20172;-52
2022/09/18 04:14:48;;;;;;;3.22;2.40;;;11.30;99.90;;;;;;5133789;27;20272;-53
2022/09/18 04:17:14;;;;;;;4.90;2.17;;;11.30;99.90;;;;;;5133612;27;20620;-52
2022/09/18 04:19:40;;;;;;;5.40;2.55;;;11.30;99.90;;;;;;5133781;27;20239;-52
2022/09/18 04:22:06;;;;;;;5.35;2.42;;;11.30;99.90;;;;;;5133208;27;20603;-52
2022/09/18 04:24:31;;;;;;;9.07;2.60;;;11.30;99.90;;;;;;5133345;27;20176;-52
2022/09/18 04:26:57;;;;;;;6.18;2.72;;;11.30;99.90;;;;;;5133394;27;20200;-52
2022/09/18 04:29:22;;;;;;;5.85;2.90;;;11.30;99.90;;;;;;5133410;27;20160;-52
2022/09/18 04:31:48;;;;;;;3.30;3.00;;;11.30;99.90;;;;;;5133712;27;20179;-52
2022/09/18 04:34:14;;;;;;;4.03;3.00;;;11.30;99.90;;;;;;5133191;27;20524;-53
2022/09/18 04:36:40;;;;;;;5.85;3.38;;;11.30;99.90;;;;;;5131901;27;20529;-52
2022/09/18 04:39:05;;;;;;;4.28;3.58;;;11.30;99.90;;;;;;5133215;27;20164;-52
2022/09/18 04:41:31;;;;;;;6.53;3.45;;;11.30;99.90;;;;;;5133231;27;20537;-52
2022/09/18 04:43:56;;;;;;;6.10;3.90;;;11.40;99.90;;;;;;5133211;27;20258;-52
2022/09/18 04:46:22;;;;;;;8.07;4.25;;;11.40;99.90;;;;;;5133026;27;20206;-52
2022/09/18 04:48:48;;;;;;;6.00;3.97;;;11.30;99.90;;;;;;5133257;27;20303;-52
2022/09/18 04:51:14;;;;;;;8.57;4.10;;;11.30;99.90;;;;;;5132806;27;20192;-52
2022/09/18 04:53:40;;;;;;;7.20;3.35;;;11.40;99.90;;;;;;5132834;27;20222;-52
2022/09/18 04:56:06;;;;;;;6.18;4.00;;;11.40;99.90;;;;;;5131660;27;20171;-52
2022/09/18 04:58:32;;;;;;;6.40;3.88;;;11.40;99.90;;;;;;5132922;27;20160;-53
2022/09/18 05:00:58;;;;;;;5.35;3.10;;;11.40;99.90;;;;;;5132841;27;20168;-51
2022/09/18 05:03:23;;;;;;;9.90;2.95;;;11.40;99.90;;;;;;5132897;27;20198;-52
2022/09/18 05:05:50;;;;;;;12.38;3.08;;;11.40;99.90;;;;;;5133273;27;20639;-52
2022/09/18 05:08:16;;;;;;;5.75;2.97;;;11.40;99.90;;;;;;5133235;27;20261;-52
2022/09/18 05:10:42;;;;;;;7.32;2.80;;;11.40;99.90;;;;;;5132779;27;20168;-53
2022/09/18 05:13:08;;;;;;;7.82;3.28;;;11.40;99.90;;;;;;5132760;27;20172;-53
2022/09/18 05:15:34;;;;;;;8.48;3.47;;;11.40;99.90;;;;;;5132222;27;20179;-53
2022/09/18 05:18:02;;;;;;;3.63;2.97;;;11.40;99.90;;;;;;5132210;27;20304;-53
2022/09/18 05:20:28;;;;;;;4.85;3.25;;;11.40;99.90;;;;;;5132810;27;20172;-52
2022/09/18 05:22:54;;;;;;;4.80;3.53;;;11.40;99.90;;;;;;5132649;28;20208;-53
2022/09/18 05:25:20;;;;;;;4.53;2.70;;;11.40;99.90;;;;;;5131146;28;20168;-53
2022/09/18 05:27:56;;;;;;;3.15;2.45;;;11.40;99.90;;;;;;5133046;28;20207;-54
2022/09/18 05:30:23;;;;;;;7.13;2.75;;;11.40;99.90;;;;;;5132492;28;20624;-53
2022/09/18 05:32:58;;;;;;;4.70;2.25;;;11.50;99.90;;;;;;5132927;28;20172;-52
2022/09/18 05:35:26;;;;;;;6.30;2.55;;;11.50;99.90;;;;;;5132684;28;20156;-53
2022/09/18 05:37:52;;;;;;;6.63;2.22;;;11.40;99.90;;;;;;5132382;28;20176;-53
2022/09/18 05:40:22;;;;;;;2.50;1.85;;;11.40;99.90;;;;;;5132791;28;20164;-53
2022/09/18 05:42:49;;;;;;;6.70;2.72;;;11.50;99.90;;;;;;5132194;28;20209;-53
2022/09/18 05:45:15;;;;;;;7.78;2.47;;;11.50;99.90;;;;;;5132656;28;20696;-53
2022/09/18 05:47:41;;;;;;;11.70;3.22;;;11.50;99.90;;;;;;5134799;27;20207;-52
2022/09/18 05:50:08;;;;;;;6.03;2.40;;;11.50;99.90;;;;;;5136483;27;20160;-53
2022/09/18 05:52:37;;;;;;;7.47;2.85;;;11.50;99.90;;;;;;5136494;27;20209;-52
2022/09/18 05:55:03;;;;;;;4.28;2.28;;;11.50;99.90;;;;;;5135005;27;20216;-52
2022/09/18 05:57:28;;;;;;;6.90;2.42;;;11.40;99.90;;;;;;5136230;27;20240;-52
2022/09/18 05:59:54;;;;;;;3.63;2.28;;;11.40;99.90;;;;;;5136352;27;20175;-52
2022/09/18 06:02:19;;;;;;;3.85;2.03;;;11.40;99.90;;;;;;5136318;27;20193;-52
2022/09/18 06:04:45;;;;;;;7.70;2.33;;;11.50;99.90;;;;;;5136777;27;20175;-52
2022/09/18 06:07:14;;;;;;;6.97;2.50;;;11.50;99.90;;;;;;5136060;27;20206;-52
2022/09/18 06:09:39;;;;;;;7.85;2.03;;;11.50;99.90;;;;;;5136393;27;20179;-52
2022/09/18 06:12:05;;;;;;;4.50;2.28;;;11.50;99.90;;;;;;5136080;27;20172;-52
2022/09/18 06:14:30;;;;;;;6.57;2.08;;;11.60;99.90;;;;;;5135964;27;20164;-52
2022/09/18 06:16:56;;;;;;;4.57;2.35;;;11.60;99.90;;;;;;5135989;27;20179;-52
2022/09/18 06:19:22;;;;;;;5.43;2.03;;;11.60;99.90;;;;;;5135870;27;20168;-52
2022/09/18 06:21:47;;;;;;;6.25;2.35;;;11.60;99.90;;;;;;5136527;27;20197;-53
2022/09/18 06:24:13;;;;;;;6.43;2.03;;;11.70;99.90;;;;;;5135955;27;20592;-52
2022/09/18 06:26:38;;;;;;;7.03;2.20;;;11.60;99.90;;;;;;5135786;27;20195;-52
2022/09/18 06:29:04;;;;;;;4.53;2.30;;;11.60;99.90;;;;;;5136086;27;20244;-53
2022/09/18 06:31:29;;;;;;;5.93;2.50;;;11.60;99.90;;;;;;5134465;27;20168;-53
2022/09/18 06:33:55;;;;;;;5.85;2.30;;;11.50;99.90;;;;;;5135748;27;20192;-52
2022/09/18 06:36:20;;;;;;;8.73;2.15;;;11.60;99.90;;;;;;5135695;27;20167;-52
2022/09/18 06:38:49;;;;;;;6.38;2.35;;;11.60;99.90;;;;;;5135874;27;20171;-53
2022/09/18 06:41:15;;;;;;;10.02;2.58;;;11.60;99.90;;;;;;5135923;27;20182;-53
2022/09/18 06:43:41;;;;;;;7.47;2.17;;;11.60;99.90;;;;;;5135324;27;20176;-52
2022/09/18 06:46:09;;;;;;;7.35;2.30;;;11.60;99.90;;;;;;5135317;27;20251;-53
2022/09/18 06:48:34;;;;;;;4.05;1.60;;;11.60;99.90;;;;;;5135363;27;20175;-53
2022/09/18 06:51:00;;;;;;;4.70;1.90;;;11.60;99.90;;;;;;5135661;27;20164;-53
2022/09/18 06:53:26;;;;;;;5.25;2.08;;;11.60;99.90;;;;;;5135049;27;20718;-52
2022/09/18 06:55:56;;;;;;;6.93;2.22;;;11.70;99.90;;;;;;5135233;27;20182;-53
2022/09/18 06:58:22;;;;;;;3.80;1.73;;;11.80;99.90;;;;;;5133738;27;20176;-53
2022/09/18 07:00:47;;;;;;;6.65;2.10;;;11.80;99.90;;;;;;5135441;27;20175;-52
2022/09/18 07:03:13;;;;;;;4.97;2.10;;;11.80;99.90;;;;;;5135052;27;20720;-53
2022/09/18 07:05:46;;;;;;;7.63;2.25;;;11.90;99.90;;;;;;5135362;27;20241;-52
2022/09/18 07:08:12;;;;;;;3.85;1.98;;;11.90;99.90;;;;;;5135112;27;20273;-53
2022/09/18 07:10:38;;;;;;;3.85;2.03;;;12.00;99.90;;;;;;5135120;27;20250;-52
2022/09/18 07:13:04;;;;;;;3.95;2.20;;;12.00;99.90;;;;;;5134802;27;20251;-52
2022/09/18 07:15:30;;;;;;;5.25;2.20;;;12.00;99.90;;;;;;5134649;27;20217;-53
2022/09/18 07:17:59;;;;;;;5.28;1.60;;;11.90;99.90;;;;;;5134842;27;20230;-52
2022/09/18 07:20:26;;;;;;;8.07;2.20;;;11.90;99.90;;;;;;5134934;27;20167;-53
2022/09/18 07:22:53;;;;;;;4.75;1.75;;;12.00;99.90;;;;;;5134648;27;20168;-53
2022/09/18 07:25:19;;;;;;;6.63;1.80;;;12.00;99.90;;;;;;5135322;27;20246;-53
2022/09/18 07:27:44;;;;;;;4.32;1.50;;;15.60;99.90;;;;;;5134961;27;20283;-53
2022/09/18 07:30:11;;;;;;;6.45;2.08;;;12.00;99.90;;;;;;5134501;27;20706;-52
2022/09/18 07:32:36;;;;;;;2.33;1.50;;;12.10;99.90;;;;;;5134316;27;20629;-52
2022/09/18 07:35:02;;;;;;;6.13;2.60;;;12.10;99.90;;;;;;5134240;27;20225;-52
2022/09/18 07:37:28;;;;;;;6.50;2.08;;;12.10;99.90;;;;;;5134402;27;20166;-52
2022/09/18 07:39:54;;;;;;;4.20;1.80;;;12.20;99.90;;;;;;5134549;27;20168;-53
2022/09/18 07:42:19;;;;;;;4.68;1.90;;;12.30;99.90;;;;;;5134424;27;20220;-53
2022/09/18 07:44:45;;;;;;;4.07;1.70;;;12.40;99.90;;;;;;5134352;27;20159;-52
2022/09/18 07:47:11;;;;;;;5.70;1.58;;;12.40;99.90;;;;;;5134049;27;20204;-53
2022/09/18 07:49:37;;;;;;;4.75;1.88;;;12.40;99.90;;;;;;5134424;27;20172;-53
2022/09/18 07:52:03;;;;;;;5.32;1.95;;;12.50;99.90;;;;;;5134070;27;20164;-53
2022/09/18 07:54:30;;;;;;;4.40;1.83;;;12.60;99.90;;;;;;5133936;27;20223;-53
2022/09/18 07:56:55;;;;;;;3.13;1.63;;;12.50;99.90;;;;;;5133941;27;20562;-52
2022/09/18 07:59:21;;;;;;;5.18;1.63;;;12.60;99.90;;;;;;5133979;27;20164;-53
2022/09/18 08:01:47;;;;;;;4.75;1.63;;;12.60;99.90;;;;;;5133151;27;20533;-53
2022/09/18 08:04:13;;;;;;;7.10;1.80;;;12.70;99.90;;;;;;5133501;27;20171;-53
2022/09/18 08:06:38;;;;;;;5.63;1.75;;;12.80;99.90;;;;;;5133444;27;20986;-53
2022/09/18 08:09:04;;;;;;;2.92;1.20;;;12.80;99.90;;;;;;5133555;27;20203;-53
2022/09/18 08:11:30;;;;;;;1.73;1.10;;;12.90;99.90;;;;;;5134579;27;20171;-53
2022/09/18 08:13:55;;;;;;;3.08;1.42;;;12.90;99.90;;;;;;5133622;27;20224;-54
2022/09/18 08:16:21;;;;;;;5.07;1.20;;;12.90;99.90;;;;;;5133686;27;20164;-53
2022/09/18 08:18:47;;;;;;;3.10;1.50;;;13.00;99.90;;;;;;5133949;27;20180;-53
2022/09/18 08:21:13;;;;;;;2.35;1.27;;;13.10;99.90;;;;;;5133290;27;20187;-53
2022/09/18 08:23:38;;;;;;;1.95;1.30;;;13.20;99.90;;;;;;5133399;27;20195;-53
2022/09/18 08:26:04;;;;;;;1.85;1.60;;;13.20;99.90;;;;;;5133252;27;20444;-53
2022/09/18 08:28:30;;;;;;;2.90;1.38;;;13.20;99.90;;;;;;5133364;27;20685;-54
2022/09/18 08:30:57;;;;;;;4.53;2.20;;;13.00;99.90;;;;;;5133352;27;20160;-53
2022/09/18 08:33:22;;;;;;;2.78;2.10;;;13.00;99.90;;;;;;5133371;27;20183;-53
2022/09/18 08:35:48;;;;;;;5.45;2.20;;;12.90;99.90;;;;;;5133739;27;20161;-53
2022/09/18 08:38:14;;;;;;;5.18;2.20;;;12.80;99.90;;;;;;5133607;27;20638;-53
2022/09/18 08:41:01;;;;;;;4.97;1.90;;;12.80;99.90;;;;;;5133379;27;20168;-53
2022/09/18 08:43:55;;;;;;;3.05;2.22;;;12.80;99.90;;;;;;5132923;27;20164;-53
2022/09/18 08:46:47;;;;;;;4.40;2.30;;;13.00;99.90;;;;;;5133234;27;20199;-53
2022/09/18 08:49:31;;;;;;;2.72;2.15;;;13.10;99.90;;;;;;5133000;27;20670;-53
2022/09/18 08:52:08;;;;;;;3.60;2.22;;;13.20;99.90;;;;;;5133030;27;20164;-53
2022/09/18 08:54:58;;;;;;;5.40;2.22;;;13.10;99.90;;;;;;5132779;27;20245;-53
2022/09/18 08:57:35;;;;;;;2.97;1.80;;;13.30;99.90;;;;;;5133011;27;20159;-53
2022/09/18 09:00:29;;;;;;;9.43;2.53;;;13.60;99.90;;;;;;5133105;27;20219;-53
2022/09/18 09:03:00;;;;;;;8.43;2.58;;;13.40;99.90;;;;;;5126178;27;20176;-53
2022/09/18 09:05:41;;;;;;;5.50;2.08;;;13.40;99.90;;;;;;5132742;27;20176;-53
2022/09/18 09:08:19;;;;;;;6.95;2.40;;;13.30;99.90;;;;;;5132603;27;20214;-53
2022/09/18 09:11:09;;;;;;;4.22;1.80;;;13.20;99.90;;;;;;5133128;27;20656;-54
2022/09/18 09:13:34;;;;;;;3.97;1.88;;;13.10;99.90;;;;;;5132358;27;20159;-53
2022/09/18 09:16:15;;;;;;;2.72;1.73;;;13.00;99.90;;;;;;5131464;27;20176;-53
2022/09/18 09:19:01;;;;;;;2.80;1.80;;;12.80;99.90;;;;;;5132792;27;20168;-53
2022/09/18 09:21:43;;;;;;;3.85;1.80;;;12.70;99.90;;;;;;5131621;27;20172;-53
2022/09/18 09:24:35;;;;;;;2.78;2.25;;;12.80;99.90;;;;;;5132644;27;20156;-53
2022/09/18 09:27:23;;;;;;;4.18;1.88;;;12.90;99.90;;;;;;5132397;28;20550;-53
2022/09/18 09:29:53;;;;;;;2.67;1.73;;;13.00;99.90;;;;;;5123389;28;20183;-53
2022/09/18 09:32:27;;;;;;;3.65;2.13;;;12.90;99.90;;;;;;5133019;28;20569;-53
2022/09/18 09:35:23;;;;;;;4.28;1.85;;;12.80;99.90;;;;;;5132478;28;20159;-53
2022/09/18 09:37:50;;;;;;;3.35;1.73;;;12.90;99.90;;;;;;5132557;28;20211;-53
2022/09/18 09:40:42;;;;;;;4.43;1.85;;;13.00;99.90;;;;;;5132817;28;20172;-53
2022/09/18 09:43:40;;;;;;;1.88;1.33;;;13.20;99.90;;;;;;5132351;28;20164;-53
2022/09/18 09:46:27;;;;;;;2.00;1.60;;;13.40;99.90;;;;;;5127975;28;20671;-54
2022/09/18 09:49:05;;;;;;;4.18;1.70;;;13.60;99.90;;;;;;5131754;28;20250;-53
2022/09/18 09:51:59;;;;;;;3.83;1.63;;;13.80;99.90;;;;;;5132305;28;20160;-53
2022/09/18 09:54:24;;;;;;;4.65;1.70;;;14.00;99.90;;;;;;5132221;28;20583;-53
2022/09/18 09:56:59;;;;;;;2.80;1.40;;;13.90;99.90;;;;;;5132575;28;20172;-53
2022/09/18 09:59:43;;;;;;;2.45;1.60;;;13.80;99.90;;;;;;5132436;28;20168;-53
2022/09/18 10:02:42;;;;;;;4.63;2.13;;;13.60;99.90;;;;;;5131954;28;20160;-53
2022/09/18 10:05:18;;;;;;;5.40;2.03;;;13.50;99.90;;;;;;5132224;28;20535;-52
2022/09/18 10:08:07;;;;;;;1.65;1.20;;;13.40;99.90;;;;;;5132713;28;20227;-53
2022/09/18 10:10:41;;;;;;;2.67;1.65;;;13.50;99.90;;;;;;5132083;28;20164;-53
2022/09/18 10:13:39;;;;;;;2.85;1.88;;;13.50;99.90;;;;;;5132154;28;20217;-53
2022/09/18 10:16:14;;;;;;;1.65;1.40;;;13.40;99.90;;;;;;5132133;28;20658;-53
2022/09/18 10:18:44;;;;;;;4.25;1.77;;;13.20;99.90;;;;;;5132129;28;20174;-52
2022/09/18 10:21:23;;;;;;;1.95;1.70;;;13.20;99.90;;;;;;5132889;28;20546;-53
2022/09/18 10:24:13;;;;;;;1.85;1.55;;;13.10;99.90;;;;;;5132172;28;20160;-53
2022/09/18 10:26:44;;;;;;;1.60;1.48;;;13.20;99.90;;;;;;5131922;28;20192;-53
2022/09/18 10:29:10;;;;;;;6.07;2.30;;;13.20;99.90;;;;;;5131562;28;20191;-54
2022/09/18 10:31:51;;;;;;;3.17;1.95;;;13.20;99.90;;;;;;5131670;28;20195;-52
2022/09/18 10:34:49;;;;;;;3.80;1.65;;;13.10;99.90;;;;;;5135522;27;20163;-52
2022/09/18 10:37:27;;;;;;;1.92;1.52;;;13.20;99.90;;;;;;5135686;27;20156;-52
2022/09/18 10:39:56;;;;;;;2.65;1.40;;;13.20;99.90;;;;;;5134154;27;20171;-52
2022/09/18 10:42:24;;;;;;;1.63;1.42;;;13.10;99.90;;;;;;5135586;27;20572;-53
2022/09/18 10:44:56;;;;;;;11.93;2.00;;;13.00;99.90;;;;;;5135326;27;20174;-53
2022/09/18 10:47:30;;;;;;;7.43;2.00;;;9.30;99.90;;;;;;5135384;27;20239;-53
2022/09/18 10:50:05;;;;;;;1.80;1.45;;;13.20;99.90;;;;;;5135158;27;20189;-52
2022/09/18 10:52:34;;;;;;;3.78;1.88;;;13.20;99.90;;;;;;5135369;27;20159;-53
2022/09/18 10:55:06;;;;;;;3.67;1.58;;;13.10;99.90;;;;;;5135117;27;20243;-53
2022/09/18 10:57:37;;;;;;;2.10;1.60;;;13.10;99.90;;;;;;5135237;27;20176;-53
2022/09/18 11:00:28;;;;;;;4.25;1.63;;;13.10;99.90;;;;;;5135178;27;20155;-53
2022/09/18 11:03:19;;;;;;;1.45;1.33;;;13.00;99.90;;;;;;5126621;27;20183;-53
2022/09/18 11:05:56;;;;;;;2.25;1.60;;;13.00;99.90;;;;;;5135389;27;20229;-53
2022/09/18 11:08:25;;;;;;;1.75;1.40;;;12.80;99.90;;;;;;5134965;27;20195;-53
2022/09/18 11:11:17;;;;;;;5.55;1.75;;;12.80;99.90;;;;;;5135275;27;20175;-53
2022/09/18 11:13:50;;;;;;;2.42;1.55;;;12.80;99.90;;;;;;5135120;27;20659;-53
2022/09/18 11:16:44;;;;;;;2.75;1.60;;;12.70;99.90;;;;;;5135205;27;20168;-53
2022/09/18 11:19:09;;;;;;;5.40;1.70;;;12.80;99.90;;;;;;5132462;27;20175;-53
2022/09/18 11:21:47;;;;;;;2.53;1.50;;;12.90;99.90;;;;;;5134632;27;20160;-53
2022/09/18 11:24:30;;;;;;;4.03;2.17;;;12.80;99.90;;;;;;5134874;27;20200;-53
2022/09/18 11:26:58;;;;;;;3.47;1.92;;;12.90;99.90;;;;;;5134858;27;20196;-53
2022/09/18 11:29:32;;;;;;;3.15;1.60;;;12.90;99.90;;;;;;5134689;27;20673;-53
2022/09/18 11:32:09;;;;;;;2.72;1.88;;;13.00;99.90;;;;;;5134984;27;20186;-53
2022/09/18 11:34:37;;;;;;;5.10;2.20;;;13.10;99.90;;;;;;5134423;27;20163;-53
2022/09/18 11:37:10;;;;;;;2.08;1.42;;;13.10;99.90;;;;;;5134556;27;20172;-53
2022/09/18 11:39:41;;;;;;;2.42;1.65;;;13.00;99.90;;;;;;5134630;27;20534;-53
2022/09/18 11:42:15;;;;;;;4.18;2.00;;;13.00;99.90;;;;;;5134278;27;20178;-53
2022/09/18 11:44:41;;;;;;;3.22;1.50;;;13.10;99.90;;;;;;5133301;27;20160;-53
2022/09/18 11:47:38;;;;;;;7.20;2.55;;;13.00;99.90;;;;;;5133106;27;20648;-53
2022/09/18 11:50:28;;;;;;;6.70;2.10;;;13.10;99.90;;;;;;5134270;27;20240;-53
2022/09/18 11:53:03;;;;;;;3.15;1.83;;;13.20;99.90;;;;;;5134160;27;20167;-53
2022/09/18 11:55:34;;;;;;;3.42;1.88;;;13.30;99.90;;;;;;5134169;27;20167;-53
2022/09/18 11:58:44;;;;;;;5.53;2.00;;;13.40;99.90;;;;;;5133404;27;20164;-53
2022/09/18 12:01:09;;;;;;;3.47;1.83;;;13.50;99.90;;;;;;5125355;27;20187;-53
2022/09/18 12:03:48;;;;;;;4.85;2.25;;;13.70;99.90;;;;;;5133272;27;20684;-53
2022/09/18 12:06:43;;;;;;;2.97;1.73;;;13.90;99.90;;;;;;5134253;27;20523;-53
2022/09/18 12:09:21;;;;;;;5.60;2.22;;;13.90;99.90;;;;;;5133622;27;20168;-53
2022/09/18 12:12:03;;;;;;;5.18;2.53;;;14.10;99.90;;;;;;5133901;27;20156;-53
2022/09/18 12:14:38;;;;;;;3.42;2.20;;;14.30;99.90;;;;;;5133223;27;20171;-53
2022/09/18 12:17:34;;;;;;;4.43;2.63;;;14.20;99.90;;;;;;5133572;27;20163;-53
2022/09/18 12:20:06;;;;;;;3.85;2.05;;;14.20;99.90;;;;;;5133299;27;20629;-53
2022/09/18 12:22:50;;;;;;;2.88;1.90;;;14.40;99.90;;;;;;5132542;27;20187;-53
2022/09/18 12:25:18;;;;;;;2.45;1.80;;;14.30;99.90;;;;;;5133925;27;20164;-53
2022/09/18 12:28:20;;;;;;;2.75;1.83;;;14.30;99.90;;;;;;5133326;27;20196;-53
2022/09/18 12:30:54;;;;;;;2.85;2.20;;;14.20;99.90;;;;;;5133247;27;20172;-53
2022/09/18 12:33:24;;;;;;;7.30;2.30;;;14.30;99.90;;;;;;5133125;27;20178;-53
2022/09/18 12:36:08;;;;;;;3.65;2.10;;;14.20;99.90;;;;;;5131923;27;20217;-53
2022/09/18 12:39:00;;;;;;;3.80;2.20;;;13.90;99.90;;;;;;5133294;27;20494;-53
2022/09/18 12:41:57;;;;;;;7.07;2.10;;;13.90;99.90;;;;;;5133044;27;20168;-53
2022/09/18 12:44:58;;;;;;;4.22;2.10;;;13.70;99.90;;;;;;5133168;27;20160;-53
2022/09/18 12:47:24;;;;;;;4.85;2.30;;;13.50;99.90;;;;;;5123619;27;20215;-53
2022/09/18 12:50:23;;;;;;;2.95;2.08;;;13.50;99.90;;;;;;5133104;27;20171;-53
2022/09/18 12:53:10;;;;;;;5.15;2.00;;;13.30;99.90;;;;;;5131448;27;20199;-53
2022/09/18 12:55:54;;;;;;;3.53;2.38;;;13.20;99.90;;;;;;5131290;27;20179;-53
2022/09/18 12:58:57;;;;;;;3.70;2.05;;;13.20;99.90;;;;;;5132798;27;20633;-53
2022/09/18 13:01:41;;;;;;;2.10;1.63;;;13.30;99.90;;;;;;5132590;27;20172;-53
2022/09/18 13:04:37;;;;;;;4.28;2.20;;;13.40;99.90;;;;;;5132608;27;20765;-53
2022/09/18 13:07:20;;;;;;;8.05;2.63;;;13.40;99.90;;;;;;5131426;27;20211;-53
2022/09/18 13:10:03;;;;;;;5.63;2.40;;;13.40;99.90;;;;;;5132838;27;20195;-53
2022/09/18 13:12:45;;;;;;;2.25;2.03;;;13.40;99.90;;;;;;5132235;27;20262;-53
2022/09/18 13:15:21;;;;;;;6.38;2.50;;;13.40;99.90;;;;;;5132045;27;20156;-53